createdAt,value
2022-09-06T02:21:28.271Z,73.39
2022-09-06T02:23:58.836Z,73.11
2022-09-06T02:26:30.043Z,73.35
2022-09-06T02:28:57.726Z,73.22
2022-09-06T02:31:59.106Z,73.47
2022-09-06T02:34:25.944Z,73.70
2022-09-06T02:36:52.806Z,74.28
2022-09-06T02:39:19.866Z,74.72
2022-09-06T02:41:48.265Z,74.94
2022-09-06T02:44:15.422Z,75.07
2022-09-06T02:46:42.416Z,75.44
2022-09-06T02:49:09.081Z,75.30
2022-09-06T02:51:39.529Z,75.26
2022-09-06T02:54:06.858Z,75.70
2022-09-06T02:56:34.746Z,75.59
2022-09-06T02:59:01.777Z,75.81
2022-09-06T03:01:28.570Z,75.83
2022-09-06T03:03:56.188Z,75.68
2022-09-06T03:06:22.940Z,75.89
2022-09-06T03:08:50.183Z,75.96
2022-09-06T03:11:16.931Z,76.23
2022-09-06T03:13:43.798Z,76.76
2022-09-06T03:16:10.865Z,76.45
2022-09-06T03:18:37.649Z,76.64
2022-09-06T03:21:04.606Z,77.25
2022-09-06T03:23:31.435Z,77.15
2022-09-06T03:25:58.452Z,77.10
2022-09-06T03:28:27.320Z,77.27
2022-09-06T03:30:54.844Z,76.86
2022-09-06T03:33:21.857Z,76.71
2022-09-06T03:35:58.473Z,76.15
2022-09-06T03:38:26.843Z,76.43
2022-09-06T03:40:55.304Z,76.90
2022-09-06T03:43:24.101Z,76.84
2022-09-06T03:45:54.758Z,76.99
2022-09-06T03:48:23.940Z,77.05
2022-09-06T03:50:54.557Z,76.90
2022-09-06T03:53:22.841Z,77.25
2022-09-06T03:55:54.410Z,77.51
2022-09-06T03:58:23.505Z,77.93
2022-09-06T04:00:59.582Z,77.90
2022-09-06T04:03:26.486Z,78.17
2022-09-06T04:05:53.275Z,78.00
2022-09-06T04:08:20.082Z,77.92
2022-09-06T04:10:50.940Z,77.93
2022-09-06T04:13:17.675Z,77.75
2022-09-06T04:15:50.285Z,77.83
2022-09-06T04:18:17.472Z,78.06
2022-09-06T04:20:47.804Z,78.16
2022-09-06T04:23:14.667Z,78.24
2022-09-06T04:25:41.397Z,78.53
2022-09-06T04:28:08.336Z,78.40
2022-09-06T04:30:34.831Z,78.15
2022-09-06T04:33:01.299Z,78.39
2022-09-06T04:35:27.816Z,78.34
2022-09-06T04:37:54.985Z,77.89
2022-09-06T04:40:21.549Z,77.97
2022-09-06T04:42:48.082Z,77.76
2022-09-06T04:45:14.672Z,78.10
2022-09-06T04:47:41.140Z,78.30
2022-09-06T04:50:08.120Z,78.12
2022-09-06T04:52:34.606Z,77.88
2022-09-06T04:55:01.370Z,77.81
2022-09-06T04:57:28.034Z,77.31
2022-09-06T04:59:54.718Z,77.19
2022-09-06T05:02:21.664Z,77.31
2022-09-06T05:04:48.968Z,77.09
2022-09-06T05:07:16.415Z,76.39
2022-09-06T05:09:43.233Z,76.07
2022-09-06T05:12:14.058Z,76.43
2022-09-06T05:14:41.117Z,76.32
2022-09-06T05:17:13.968Z,76.51
2022-09-06T05:19:43.630Z,76.58
2022-09-06T05:22:11.948Z,76.72
2022-09-06T05:24:46.127Z,76.58
2022-09-06T05:27:14.517Z,76.75
2022-09-06T05:29:51.693Z,76.85
2022-09-06T05:32:22.233Z,76.08
2022-09-06T05:34:49.602Z,75.20
2022-09-06T05:37:18.290Z,74.39
2022-09-06T05:39:48.260Z,73.68
2022-09-06T05:42:19.136Z,73.33
2022-09-06T05:44:59.690Z,73.50
2022-09-06T05:47:26.487Z,73.73
2022-09-06T05:49:54.233Z,73.49
2022-09-06T05:52:21.264Z,73.18
2022-09-06T05:54:55.524Z,73.13
2022-09-06T05:57:24.765Z,72.79
2022-09-06T06:00:02.357Z,72.58
2022-09-06T06:02:29.816Z,72.03
2022-09-06T06:07:41.235Z,72.05
2022-09-06T06:10:08.887Z,71.22
2022-09-06T06:12:38.583Z,70.58
2022-09-06T06:15:06.520Z,70.53
2022-09-06T06:20:39.435Z,71.31
2022-09-06T06:31:21.909Z,69.96
2022-09-06T06:33:53.338Z,69.37
2022-09-06T06:50:47.945Z,66.44
2022-09-06T06:53:22.220Z,65.54
2022-09-06T07:15:29.205Z,57.09
2022-09-06T07:18:01.330Z,57.61
2022-09-06T07:20:28.912Z,57.76
2022-09-06T07:25:51.881Z,57.99
2022-09-06T07:34:02.032Z,55.06
2022-09-06T07:36:49.706Z,53.58
2022-09-06T07:39:33.158Z,53.45
2022-09-06T07:42:01.842Z,51.30
2022-09-06T07:53:13.029Z,43.32
2022-09-06T07:55:53.812Z,43.17
2022-09-06T07:58:24.926Z,43.77
2022-09-06T08:00:55.738Z,42.94
2022-09-06T08:03:30.898Z,42.60
2022-09-06T08:12:07.988Z,49.65
2022-09-06T08:14:38.790Z,48.88
2022-09-06T08:22:58.501Z,50.05
2022-09-06T08:25:32.978Z,51.30
2022-09-06T08:28:18.146Z,51.96
2022-09-06T08:30:47.104Z,51.18
2022-09-06T08:43:00.396Z,52.29
2022-09-06T08:45:27.979Z,48.60
2022-09-06T08:54:50.909Z,44.95
2022-09-06T08:57:51.578Z,47.52
2022-09-06T09:00:54.959Z,46.89
2022-09-06T09:03:25.572Z,45.25
2022-09-06T09:06:00.838Z,41.90
2022-09-06T09:08:48.369Z,41.68
2022-09-06T09:11:21.363Z,41.60
2022-09-06T09:13:56.558Z,40.43
2022-09-06T09:16:35.563Z,39.98
2022-09-06T09:19:05.006Z,40.65
2022-09-06T09:24:29.877Z,43.18
2022-09-06T09:33:39.419Z,37.50
2022-09-06T09:36:11.684Z,34.60
2022-09-06T09:38:45.840Z,33.69
2022-09-06T09:45:46.965Z,34.32
2022-09-06T10:02:54.695Z,31.63
2022-09-06T10:08:02.553Z,32.67
2022-09-06T10:10:42.032Z,33.64
2022-09-06T10:13:20.540Z,33.55
2022-09-06T10:15:49.739Z,37.22
2022-09-06T10:18:45.753Z,38.03
2022-09-06T10:21:23.461Z,38.61
2022-09-06T10:28:10.548Z,41.45
2022-09-06T10:34:09.804Z,42.69
2022-09-06T10:36:51.705Z,43.88
2022-09-06T10:39:31.081Z,43.02
2022-09-06T10:45:07.586Z,42.65
2022-09-06T10:56:48.446Z,40.99
2022-09-06T11:05:42.047Z,39.50
2022-09-06T11:08:47.932Z,40.08
2022-09-06T11:11:29.831Z,38.98
2022-09-06T11:14:02.539Z,38.35
2022-09-06T11:19:31.132Z,37.24
2022-09-06T11:28:19.569Z,38.00
2022-09-06T11:30:49.598Z,37.20
2022-09-06T11:33:29.115Z,36.94
2022-09-06T11:48:27.759Z,35.81
2022-09-06T11:53:51.845Z,36.13
2022-09-06T11:59:48.553Z,36.38
2022-09-06T12:02:41.069Z,35.52
2022-09-06T12:05:35.345Z,38.91
2022-09-06T12:11:46.703Z,39.78
2022-09-06T12:17:46.980Z,37.97
2022-09-06T12:20:55.017Z,37.07
2022-09-06T12:23:48.288Z,36.24
2022-09-06T12:27:13.823Z,35.50
2022-09-06T12:29:51.180Z,35.68
2022-09-06T12:32:26.453Z,36.12
2022-09-06T12:38:06.828Z,36.26
2022-09-06T12:40:48.738Z,35.97
2022-09-06T12:43:21.743Z,36.32
2022-09-06T12:45:58.762Z,36.32
2022-09-06T12:51:26.545Z,36.66
2022-09-06T12:53:57.761Z,35.57
2022-09-06T12:56:31.446Z,34.88
2022-09-06T12:59:25.572Z,35.19
2022-09-06T13:02:11.797Z,36.15
2022-09-06T13:08:01.779Z,36.07
2022-09-06T13:10:32.117Z,35.51
2022-09-06T13:13:02.666Z,36.18
2022-09-06T13:15:40.025Z,37.44
2022-09-06T13:18:38.873Z,36.64
2022-09-06T13:21:11.478Z,36.16
2022-09-06T13:23:50.745Z,36.31
2022-09-06T13:29:28.893Z,36.86
2022-09-06T13:32:12.924Z,36.27
2022-09-06T13:35:00.735Z,36.86
2022-09-06T13:37:46.332Z,36.29
2022-09-06T13:41:10.733Z,36.33
2022-09-06T13:44:16.309Z,37.04
2022-09-06T13:47:06.769Z,35.95
2022-09-06T13:49:40.415Z,35.98
2022-09-06T13:55:34.369Z,36.51
2022-09-06T14:00:49.448Z,35.54
2022-09-06T14:03:32.516Z,35.10
2022-09-06T14:06:08.767Z,35.51
2022-09-06T14:09:05.938Z,35.34
2022-09-06T14:11:28.810Z,34.98
2022-09-06T14:13:58.982Z,35.04
2022-09-06T14:22:01.704Z,35.51
2022-09-06T14:24:35.042Z,35.47
2022-09-06T14:27:09.244Z,35.08
2022-09-06T14:29:38.328Z,34.20
2022-09-06T14:32:08.043Z,35.12
2022-09-06T14:34:43.773Z,34.85
2022-09-06T14:37:13.728Z,34.56
2022-09-06T14:39:51.202Z,34.63
2022-09-06T14:45:00.792Z,34.83
2022-09-06T14:47:33.548Z,34.23
2022-09-06T14:55:41.581Z,34.37
2022-09-06T15:03:49.239Z,34.36
2022-09-06T15:06:50.099Z,33.70
2022-09-06T15:18:09.600Z,33.37
2022-09-06T15:26:24.837Z,33.90
2022-09-06T15:28:56.090Z,33.27
2022-09-06T15:31:23.689Z,33.45
2022-09-06T15:33:52.160Z,34.16
2022-09-06T15:36:33.095Z,33.69
2022-09-06T15:39:07.599Z,34.07
2022-09-06T15:41:42.029Z,34.10
2022-09-06T15:44:14.650Z,34.42
2022-09-06T15:46:46.271Z,36.43
2022-09-06T15:49:18.766Z,33.81
2022-09-06T15:51:49.122Z,34.07
2022-09-06T15:54:19.067Z,34.28
2022-09-06T15:56:46.170Z,34.57
2022-09-06T15:59:13.619Z,34.47
2022-09-06T16:01:42.240Z,35.19
2022-09-06T16:04:10.521Z,35.44
2022-09-06T16:06:42.589Z,35.75
2022-09-06T16:09:15.158Z,35.48
2022-09-06T16:11:54.209Z,35.37
2022-09-06T16:14:22.191Z,35.04
2022-09-06T16:16:49.728Z,35.06
2022-09-06T16:19:17.113Z,35.74
2022-09-06T16:21:44.785Z,36.06
2022-09-06T16:24:15.570Z,36.68
2022-09-06T16:26:49.408Z,36.54
2022-09-06T16:29:20.841Z,36.92
2022-09-06T16:31:49.585Z,36.67
2022-09-06T16:34:20.444Z,37.62
2022-09-06T16:36:48.329Z,37.71
2022-09-06T16:39:16.082Z,37.32
2022-09-06T16:41:51.385Z,37.63
2022-09-06T16:44:32.096Z,37.64
2022-09-06T16:47:04.339Z,38.04
2022-09-06T16:49:31.314Z,37.28
2022-09-06T16:51:58.511Z,37.47
2022-09-06T16:54:30.178Z,37.16
2022-09-06T16:56:57.985Z,37.18
2022-09-06T16:59:28.015Z,37.14
2022-09-06T17:01:57.657Z,37.25
2022-09-06T17:04:36.165Z,37.36
2022-09-06T17:07:05.927Z,37.54
2022-09-06T17:09:37.578Z,38.06
2022-09-06T17:12:13.243Z,37.85
2022-09-06T17:14:45.231Z,37.96
2022-09-06T17:17:27.506Z,37.96
2022-09-06T17:20:03.502Z,38.55
2022-09-06T17:22:30.446Z,38.53
2022-09-06T17:24:57.734Z,39.11
2022-09-06T17:27:25.325Z,39.19
2022-09-06T17:30:20.039Z,38.93
2022-09-06T17:32:48.815Z,39.61
2022-09-06T17:35:24.065Z,39.81
2022-09-06T17:37:53.164Z,40.31
2022-09-06T17:40:20.423Z,40.71
2022-09-06T17:42:52.276Z,42.23
2022-09-06T17:45:21.106Z,42.71
2022-09-06T17:47:48.972Z,42.30
2022-09-06T17:50:20.283Z,42.02
2022-09-06T17:52:50.229Z,41.95
2022-09-06T18:00:44.014Z,45.33
2022-09-06T18:03:16.811Z,45.36
2022-09-06T18:05:55.180Z,45.70
2022-09-06T18:08:23.197Z,46.29
2022-09-06T18:10:51.776Z,46.58
2022-09-06T18:13:20.180Z,47.32
2022-09-06T18:15:53.416Z,48.04
2022-09-06T18:26:34.549Z,47.47
2022-09-06T18:29:05.793Z,48.46
2022-09-06T18:31:38.070Z,48.86
2022-09-06T18:34:18.991Z,49.96
2022-09-06T18:39:29.761Z,49.85
2022-09-06T18:42:04.683Z,49.80
2022-09-06T18:49:59.805Z,50.68
2022-09-06T18:52:32.918Z,50.39
2022-09-06T18:55:03.516Z,50.86
2022-09-06T18:57:32.660Z,51.19
2022-09-06T19:05:24.426Z,51.96
2022-09-06T19:07:55.386Z,53.07
2022-09-06T19:10:26.009Z,53.34
2022-09-06T19:12:54.143Z,54.48
2022-09-06T19:15:24.071Z,54.71
2022-09-06T19:17:55.193Z,54.88
2022-09-06T19:23:07.938Z,54.81
2022-09-06T19:28:25.301Z,55.31
2022-09-06T19:37:17.353Z,55.88
2022-09-06T19:45:18.951Z,55.70
2022-09-06T19:50:38.374Z,55.47
2022-09-06T19:59:00.185Z,56.04
2022-09-06T20:01:31.514Z,56.12
2022-09-06T20:04:25.828Z,55.28
2022-09-06T20:18:07.300Z,59.03
2022-09-06T20:20:59.726Z,59.77
2022-09-06T20:34:27.437Z,58.86
2022-09-06T20:36:54.947Z,59.00
2022-09-06T20:53:26.536Z,59.53
2022-09-06T20:56:00.675Z,59.99
2022-09-06T21:21:13.196Z,62.36
2022-09-06T21:40:15.973Z,63.69
2022-09-06T21:48:05.671Z,63.01
2022-09-06T21:50:35.209Z,62.76
2022-09-06T21:53:02.191Z,63.13
2022-09-06T21:55:32.943Z,62.77
2022-09-06T21:57:59.891Z,62.46
2022-09-06T22:00:30.548Z,62.60
2022-09-06T22:02:57.602Z,62.87
2022-09-06T22:05:24.950Z,63.22
2022-09-06T22:07:51.824Z,63.19
2022-09-06T22:10:18.869Z,63.41
2022-09-06T22:12:45.865Z,63.29
2022-09-06T22:15:13.448Z,63.54
2022-09-06T22:17:42.919Z,63.87
2022-09-06T22:20:12.344Z,63.49
2022-09-06T22:22:41.764Z,63.25
2022-09-06T22:25:11.188Z,63.71
2022-09-06T22:27:41.500Z,64.14
2022-09-06T22:30:11.637Z,64.26
2022-09-06T22:32:39.065Z,64.49
2022-09-06T22:35:08.679Z,64.35
2022-09-06T22:37:38.103Z,64.70
2022-09-06T22:40:05.887Z,64.67
2022-09-06T22:42:33.615Z,64.90
2022-09-06T22:45:04.121Z,64.89
2022-09-06T22:47:31.016Z,64.91
2022-09-06T22:49:59.269Z,64.77
2022-09-06T22:52:28.613Z,64.91
2022-09-06T22:54:56.165Z,65.04
2022-09-06T22:57:36.672Z,65.46
2022-09-06T23:00:07.321Z,65.71
2022-09-06T23:02:34.276Z,66.15
2022-09-06T23:05:01.309Z,66.97
2022-09-06T23:07:28.138Z,67.05
2022-09-06T23:09:55.077Z,66.65
2022-09-06T23:12:21.917Z,66.38
2022-09-06T23:14:49.051Z,66.37
2022-09-06T23:17:16.327Z,66.75
2022-09-06T23:19:43.249Z,66.85
2022-09-06T23:22:14.851Z,66.68
2022-09-06T23:24:42.256Z,66.55
2022-09-06T23:27:09.310Z,66.93
2022-09-06T23:29:36.499Z,66.77
2022-09-06T23:32:03.760Z,66.95
2022-09-06T23:34:31.086Z,67.11
2022-09-06T23:37:02.674Z,67.60
2022-09-06T23:39:29.965Z,67.81
2022-09-06T23:41:58.407Z,68.29
2022-09-06T23:44:25.332Z,68.61
2022-09-06T23:46:53.415Z,68.57
2022-09-06T23:49:20.354Z,68.60
2022-09-06T23:51:50.599Z,68.27
2022-09-06T23:54:17.929Z,67.93
2022-09-06T23:56:44.654Z,67.97
2022-09-06T23:59:11.615Z,68.34
